Madison, MN

2:20 PM CDT on September 22, 2019 (GMT -0500)
Madison-Lac Qui Parle County

Weather History for KDXX - July, 2019

Change the Weather History Date:

Thursday, July 18, 2019

  Actual Average (KAQP) Record (KAQP)
Temperature  
Mean Temperature 80 °F -  
Max Temperature 89 °F 80 °F 95 °F (2001)
Min Temperature 71 °F 60 °F 53 °F (2000)
Cooling Degree Days 15    
Growing Degree Days 30 (Base 50)    
Moisture  
Dew Point 71 °F    
Average Humidity 76    
Maximum Humidity 100    
Minimum Humidity 52    
Precipitation  
Precipitation 0.00 in - - ()
Sea Level Pressure  
Sea Level Pressure 29.69 in    
Wind  
Wind Speed 3 mph (SSE)    
Max Wind Speed 9 mph    
Max Gust Speed -    
Visibility 10 miles    
Events      
Averages and records for this station are not official NWS values.
T = Trace of Precipitation, MM = Missing Value Source: NWS Daily Summary

Daily Weather History Graph

Daily Weather History Graph

Search for Another Location

Airport or City:

Astronomy

Jul. 18, 2019 Rise Set
Actual Time 5:55 AM CDT 9:06 PM CDT
Civil Twilight 5:19 AM CDT 9:41 PM CDT
Nautical Twilight 4:33 AM CDT 10:27 PM CDT
Astronomical Twilight 3:36 AM CDT 11:23 PM CDT
Moon 10:29 PM CDT (7/18) 7:27 AM CDT (7/18)
Length of Visible Light 16h 22m
Length of Day
15h 11m
Full, 97% of the Moon is Illuminated
Jul 18
Full
Jul 24
Last Quarter
Jul 31
New
Aug 7
First Quarter
Aug 15
Full

Hourly Weather History & Observations

Time (CDT) Temp. Heat Index Dew Point Humidity Pressure Visibility Wind Dir Wind Speed Gust Speed Precip Events Conditions
12:15 AM 75.2 °F - 71.6 °F 89% 29.73 in 10.0 mi SE 4.6 mph - N/A   Clear
12:19 AM 73.4 °F - 71.6 °F 94% 29.73 in 10.0 mi SE 3.5 mph - N/A   Clear
12:38 AM 73.4 °F - 71.6 °F 94% 29.73 in 10.0 mi SSE 3.5 mph - N/A   Clear
12:55 AM 73.4 °F - 71.6 °F 94% 29.74 in 10.0 mi South 4.6 mph - N/A   Clear
1:15 AM 73.4 °F - 71.6 °F 94% 29.73 in 10.0 mi Calm Calm - N/A   Clear
1:16 AM 73.4 °F - 71.6 °F 94% 29.73 in 10.0 mi Calm Calm - N/A   Clear
1:35 AM 73.4 °F - 71.6 °F 94% 29.72 in 10.0 mi SSW 3.5 mph - N/A   Clear
1:58 AM 73.4 °F - 71.6 °F 94% 29.72 in 10.0 mi SSW 3.5 mph - N/A   Clear
2:16 AM 73.4 °F - 71.6 °F 94% 29.71 in 10.0 mi Calm Calm - N/A   Clear
2:35 AM 73.4 °F - 71.6 °F 94% 29.71 in 10.0 mi Calm Calm - N/A   Clear
2:55 AM 73.4 °F - 71.6 °F 94% 29.71 in 10.0 mi Calm Calm - N/A   Scattered Clouds
2:56 AM 73.4 °F - 71.6 °F 94% 29.71 in 10.0 mi Calm Calm - N/A   Scattered Clouds
3:15 AM 73.4 °F - 71.6 °F 94% 29.68 in 10.0 mi Calm Calm - N/A   Scattered Clouds
3:20 AM 73.4 °F - 71.6 °F 94% 29.65 in 10.0 mi East 8.1 mph - N/A   Scattered Clouds
3:37 AM 73.4 °F - 71.6 °F 94% 29.67 in 10.0 mi Calm Calm - N/A   Clear
3:55 AM 73.4 °F - 71.6 °F 94% 29.67 in 10.0 mi Calm Calm - N/A   Clear
4:15 AM 71.6 °F - 71.6 °F 100% 29.67 in 7.0 mi Calm Calm - N/A   Clear
4:16 AM 71.6 °F - 71.6 °F 100% 29.67 in 7.0 mi Calm Calm - N/A   Clear
4:35 AM 71.6 °F - 71.6 °F 100% 29.68 in 10.0 mi WNW 5.8 mph - N/A   Clear
4:36 AM 73.4 °F - 71.6 °F 94% 29.68 in 10.0 mi WNW 4.6 mph - N/A   Clear
4:59 AM 73.4 °F - 71.6 °F 94% 29.69 in 10.0 mi Calm Calm - N/A   Clear
5:17 AM 71.6 °F - 69.8 °F 94% 29.70 in 10.0 mi North 4.6 mph - N/A   Clear
5:36 AM 71.6 °F - 69.8 °F 94% 29.70 in 10.0 mi Calm Calm - N/A   Clear
5:55 AM 71.6 °F - 69.8 °F 94% 29.71 in 10.0 mi NNE 3.5 mph - N/A   Clear
5:56 AM 71.6 °F - 69.8 °F 94% 29.72 in 10.0 mi NNE 3.5 mph - N/A   Clear
6:15 AM 71.6 °F - 69.8 °F 94% 29.72 in 10.0 mi Calm Calm - N/A   Clear
6:37 AM 71.6 °F - 69.8 °F 94% 29.73 in 10.0 mi NNW 3.5 mph - N/A   Clear
6:56 AM 71.6 °F - 69.8 °F 94% 29.73 in 10.0 mi NNW 6.9 mph - N/A   Clear
7:15 AM 73.4 °F - 69.8 °F 88% 29.74 in 10.0 mi Calm Calm - N/A   Mostly Cloudy
7:16 AM 73.4 °F - 69.8 °F 88% 29.73 in 10.0 mi Calm Calm - N/A   Mostly Cloudy
7:35 AM 73.4 °F - 69.8 °F 88% 29.72 in 10.0 mi NNW 8.1 mph - N/A   Scattered Clouds
7:36 AM 73.4 °F - 69.8 °F 88% 29.72 in 10.0 mi NNW 8.1 mph - N/A   Scattered Clouds
7:58 AM 73.4 °F - 69.8 °F 88% 29.71 in 10.0 mi Calm Calm - N/A   Clear
8:16 AM 75.2 °F - 68.0 °F 78% 29.70 in 10.0 mi Calm Calm - N/A   Clear
8:35 AM 75.2 °F - 68.0 °F 78% 29.70 in 10.0 mi Calm Calm - N/A   Clear
8:55 AM 77.0 °F - 66.2 °F 69% 29.72 in 10.0 mi SSW 3.5 mph - N/A   Clear
8:56 AM 77.0 °F - 68.0 °F 74% 29.72 in 10.0 mi SSW 4.6 mph - N/A   Clear
9:15 AM 77.0 °F - 68.0 °F 74% 29.70 in 10.0 mi SW 5.8 mph - N/A   Clear
9:19 AM 78.8 °F - 68.0 °F 69% 29.70 in 10.0 mi South 4.6 mph - N/A   Clear
9:38 AM 78.8 °F - 68.0 °F 69% 29.71 in 10.0 mi Calm Calm - N/A   Clear
9:55 AM 78.8 °F - 68.0 °F 69% 29.72 in 10.0 mi West 3.5 mph - N/A   Clear
10:15 AM 78.8 °F - 68.0 °F 69% 29.71 in 10.0 mi South 4.6 mph - N/A   Clear
10:16 AM 78.8 °F - 68.0 °F 69% 29.71 in 10.0 mi South 4.6 mph - N/A   Clear
10:35 AM 78.8 °F - 68.0 °F 69% 29.72 in 10.0 mi SSW 8.1 mph - N/A   Clear
10:36 AM 78.8 °F - 68.0 °F 69% 29.72 in 10.0 mi SW 8.1 mph - N/A   Clear
10:58 AM 78.8 °F - 69.8 °F 74% 29.71 in 10.0 mi SW 5.8 mph - N/A   Clear
11:17 AM 78.8 °F - 68.0 °F 69% 29.69 in 10.0 mi Calm Calm - N/A   Clear
11:36 AM 78.8 °F - 66.2 °F 65% 29.69 in 10.0 mi Calm Calm - N/A   Clear
11:55 AM 78.8 °F - 69.8 °F 74% 29.71 in 10.0 mi SSW 6.9 mph - N/A   Clear
12:15 PM 80.6 °F 83.9 °F 69.8 °F 70% 29.70 in 10.0 mi SSW 6.9 mph - N/A   Clear
12:37 PM 80.6 °F 83.9 °F 69.8 °F 70% 29.70 in 10.0 mi SSW 5.8 mph - N/A   Clear
12:56 PM 80.6 °F 83.9 °F 69.8 °F 70% 29.70 in 10.0 mi SSW 6.9 mph - N/A   Scattered Clouds
1:15 PM 82.4 °F 87.2 °F 71.6 °F 70% 29.69 in 10.0 mi South 4.6 mph - N/A   Clear
1:35 PM 84.2 °F 90.9 °F 73.4 °F 70% 29.68 in 10.0 mi SSW 4.6 mph - N/A   Clear
1:36 PM 84.2 °F 90.9 °F 73.4 °F 70% 29.68 in 10.0 mi SSW 4.6 mph - N/A   Clear
1:59 PM 84.2 °F 90.9 °F 73.4 °F 70% 29.68 in 10.0 mi SW 4.6 mph - N/A   Scattered Clouds
2:16 PM 86.0 °F 95.1 °F 75.2 °F 70% 29.67 in 10.0 mi WSW 5.8 mph - N/A   Scattered Clouds
2:36 PM 86.0 °F 95.1 °F 75.2 °F 70% 29.67 in 10.0 mi West 4.6 mph - N/A   Scattered Clouds
2:55 PM 87.8 °F 95.6 °F 73.4 °F 62% 29.67 in 10.0 mi West 4.6 mph - N/A   Clear
3:15 PM 87.8 °F 95.6 °F 73.4 °F 62% 29.66 in 10.0 mi Calm Calm - N/A   Scattered Clouds
3:19 PM 87.8 °F 95.6 °F 73.4 °F 62% 29.66 in 10.0 mi Calm Calm - N/A   Scattered Clouds
3:38 PM 89.6 °F 98.2 °F 73.4 °F 59% 29.66 in 10.0 mi Calm Calm - N/A   Clear
3:56 PM 89.6 °F 98.2 °F 73.4 °F 59% 29.66 in 10.0 mi Calm Calm - N/A   Clear
4:15 PM 89.6 °F 96.2 °F 71.6 °F 55% 29.66 in 10.0 mi Calm Calm - N/A   Clear
4:16 PM 89.6 °F 96.2 °F 71.6 °F 55% 29.66 in 10.0 mi Calm Calm - N/A   Clear
4:35 PM 89.6 °F 98.2 °F 73.4 °F 59% 29.66 in 10.0 mi NE 3.5 mph - N/A   Scattered Clouds
4:36 PM 89.6 °F 98.2 °F 73.4 °F 59% 29.66 in 10.0 mi Calm Calm - N/A   Scattered Clouds
4:58 PM 89.6 °F 96.2 °F 71.6 °F 55% 29.66 in 10.0 mi East 3.5 mph - N/A   Clear
5:17 PM 89.6 °F 94.7 °F 69.8 °F 52% 29.66 in 10.0 mi Calm Calm - N/A   Clear
5:35 PM 89.6 °F 94.7 °F 69.8 °F 52% 29.65 in 10.0 mi Calm Calm - N/A   Clear
5:55 PM 89.6 °F 94.7 °F 69.8 °F 52% 29.65 in 10.0 mi NNE 3.5 mph - N/A   Clear
5:56 PM 89.6 °F 94.7 °F 69.8 °F 52% 29.65 in 10.0 mi NNE 3.5 mph - N/A   Clear
6:15 PM 89.6 °F 94.7 °F 69.8 °F 52% 29.64 in 10.0 mi NE 3.5 mph - N/A   Clear
6:19 PM 89.6 °F 94.7 °F 69.8 °F 52% 29.64 in 10.0 mi NE 3.5 mph - N/A   Clear
6:38 PM 89.6 °F 94.7 °F 69.8 °F 52% 29.64 in 10.0 mi Calm Calm - N/A   Clear
6:55 PM 89.6 °F 94.7 °F 69.8 °F 52% 29.64 in 10.0 mi ENE 3.5 mph - N/A   Clear
7:15 PM 87.8 °F 93.8 °F 71.6 °F 58% 29.64 in 10.0 mi ENE 3.5 mph - N/A   Scattered Clouds
7:16 PM 87.8 °F 93.8 °F 71.6 °F 58% 29.64 in 10.0 mi ENE 3.5 mph - N/A   Scattered Clouds
7:35 PM 87.8 °F 95.6 °F 73.4 °F 62% 29.64 in 10.0 mi East 3.5 mph - N/A   Scattered Clouds
7:58 PM 86.0 °F 93.4 °F 73.4 °F 66% 29.64 in 10.0 mi East 3.5 mph - N/A   Clear
8:17 PM 84.2 °F 90.9 °F 73.4 °F 70% 29.64 in 10.0 mi Calm Calm - N/A   Clear
8:36 PM 82.4 °F 88.2 °F 73.4 °F 74% 29.65 in 10.0 mi ESE 4.6 mph - N/A   Clear
8:55 PM 82.4 °F 87.2 °F 71.6 °F 70% 29.66 in 10.0 mi ESE 5.8 mph - N/A   Clear
8:56 PM 80.6 °F 84.6 °F 71.6 °F 74% 29.66 in 10.0 mi ESE 5.8 mph - N/A   Clear
9:15 PM 80.6 °F 83.9 °F 69.8 °F 70% 29.65 in 10.0 mi SE 9.2 mph - N/A   Clear
9:37 PM 80.6 °F 84.6 °F 71.6 °F 74% 29.67 in 10.0 mi Calm Calm - N/A   Clear
9:55 PM 78.8 °F - 71.6 °F 78% 29.67 in 10.0 mi East 3.5 mph - N/A   Clear
10:15 PM 78.8 °F - 69.8 °F 74% 29.67 in 10.0 mi Calm Calm - N/A   Clear
10:16 PM 78.8 °F - 69.8 °F 74% 29.67 in 10.0 mi Calm Calm - N/A   Clear
10:35 PM 78.8 °F - 69.8 °F 74% 29.68 in 10.0 mi Calm Calm - N/A   Clear
10:36 PM 78.8 °F - 69.8 °F 74% 29.68 in 10.0 mi Calm Calm - N/A   Clear
10:59 PM 78.8 °F - 69.8 °F 74% 29.67 in 10.0 mi East 3.5 mph - N/A   Clear
11:16 PM 75.2 °F - 69.8 °F 83% 29.67 in 10.0 mi East 4.6 mph - N/A   Clear
11:36 PM 75.2 °F - 69.8 °F 83% 29.68 in 7.0 mi Calm Calm - N/A   Clear
11:55 PM 75.2 °F - 69.8 °F 83% 29.69 in 10.0 mi Calm Calm - N/A   Clear
11:56 PM 75.2 °F - 69.8 °F 83% 29.69 in 10.0 mi Calm Calm - N/A   Clear